Terminal Aerodrome Forecast
Issued by NWS Tulsa, OK

Home | Current Version | Previous Version | Text Only | Print | Product List | Glossary On
Versions: 1 2 3 4 5 6 7 8 9 10 11 12 13 14
661
FTUS44 KTSA 041123
TAFTUL
TAF
KTUL 041123Z 0412/0512 VRB03KT 6SM -RA SCT005 OVC015
      TEMPO 0412/0414 2SM -RA BR OVC005
     FM041500 31005KT 4SM BR OVC007
     FM041800 34007KT P6SM BKN015
     FM042000 35006KT P6SM SKC
     FM050000 VRB02KT P6SM SCT250
     FM050900 15003KT 3SM BR FEW003 SCT250=

USA.gov is the U.S. government's official web portal to all federal, state and local government web resources and services.